Time;durP1;ratioP1;P1;durP2;ratioP2;P2;SDS_P1;SDS_P2;PMS_P1;PMS_P2;Temp;Humidity;BMP_temperature;BMP_pressure;BME280_temperature;BME280_humidity;BME280_pressure;Samples;Min_cycle;Max_cycle;Signal;HPM_P1;HPM_P2
2022/09/15 00:01:56;;;;;;;;;;;16.00;99.90;;;;;;5104947;27;19926;-56
2022/09/15 00:04:36;;;;;;;;;;;16.00;99.90;;;;;;5104668;27;19912;-56
2022/09/15 00:07:16;;;;;;;;;;;16.10;99.90;;;;;;5105107;27;19945;-56
2022/09/15 00:09:56;;;;;;;;;;;16.20;99.90;;;;;;5123115;27;19969;-56
2022/09/15 00:12:36;;;;;;;;;;;16.30;99.90;;;;;;5105005;27;20377;-56
2022/09/15 00:15:16;;;;;;;;;;;16.30;99.90;;;;;;5104678;27;19926;-55
2022/09/15 00:17:57;;;;;;;;;;;16.30;99.90;;;;;;5104591;27;19946;-56
2022/09/15 00:20:39;;;;;;;;;;;16.40;99.90;;;;;;5083705;28;19913;-56
2022/09/15 00:23:20;;;;;;;;;;;16.40;99.90;;;;;;5125553;27;19919;-56
2022/09/15 00:26:00;;;;;;;;;;;16.40;99.90;;;;;;5151190;27;19911;-56
2022/09/15 00:28:39;;;;;;;;;;;16.40;99.90;;;;;;5125235;27;19912;-56
2022/09/15 00:31:20;;;;;;;;;;;16.40;99.90;;;;;;5091792;27;19913;-57
2022/09/15 00:34:02;;;;;;;;;;;16.40;99.90;;;;;;5105406;27;20431;-56
2022/09/15 00:36:42;;;;;;;;;;;16.40;99.90;;;;;;5104909;27;19926;-56
2022/09/15 00:39:22;;;;;;;;;;;16.40;99.90;;;;;;5103959;27;19912;-56
2022/09/15 00:42:03;;;;;;;;;;;16.40;99.90;;;;;;5104161;27;20348;-56
2022/09/15 00:44:51;;;;;;;;;;;16.30;99.90;;;;;;5104889;27;19926;-56
2022/09/15 00:47:34;;;;;;;;;;;16.30;99.90;;;;;;5124797;27;19912;-56
2022/09/15 00:50:15;;;;;;;;;;;16.30;99.90;;;;;;5099753;27;19927;-56
2022/09/15 00:52:57;;;;;;;;;;;16.40;99.90;;;;;;5105141;27;20411;-56
2022/09/15 00:55:38;;;;;;;;;;;16.40;99.90;;;;;;5105089;27;19957;-56
2022/09/15 00:58:20;;;;;;;;;;;16.30;99.90;;;;;;5104721;27;19912;-56
2022/09/15 01:01:01;;;;;;;;;;;16.30;99.90;;;;;;5073238;28;19917;-56
2022/09/15 01:03:41;;;;;;;;;;;16.30;99.90;;;;;;5084560;28;19913;-56
2022/09/15 01:06:24;;;;;;;;;;;16.20;99.90;;;;;;5104685;27;20157;-56
2022/09/15 01:09:07;;;;;;;;;;;16.20;99.90;;;;;;5104150;27;19977;-56
2022/09/15 01:11:47;;;;;;;;;;;16.20;99.90;;;;;;5104851;27;19926;-56
2022/09/15 01:14:27;;;;;;;;;;;16.30;99.90;;;;;;5105001;27;19926;-56
2022/09/15 01:17:11;;;;;;;;;;;16.30;99.90;;;;;;5166453;27;19911;-56
2022/09/15 01:20:09;;;;;;;;;;;16.30;99.90;;;;;;5116754;27;20426;-56
2022/09/15 01:22:55;;;;;;;;;;;16.30;99.90;;;;;;5105053;27;19930;-56
2022/09/15 01:25:47;;;;;;;;;;;16.20;99.90;;;;;;5104370;27;20447;-56
2022/09/15 01:28:40;;;;;;;;;;;16.30;99.90;;;;;;5104605;27;19912;-56
2022/09/15 01:31:23;;;;;;;;;;;16.30;99.90;;;;;;5125710;27;19918;-56
2022/09/15 01:34:07;;;;;;;;;;;16.30;99.90;;;;;;5084611;28;19913;-56
2022/09/15 01:36:49;;;;;;;;;;;16.40;99.90;;;;;;5097690;27;19930;-56
2022/09/15 01:39:33;;;;;;;;;;;16.40;99.90;;;;;;5103226;27;19916;-56
2022/09/15 01:42:14;;;;;;;;;;;16.40;99.90;;;;;;5103519;27;19930;-56
2022/09/15 01:44:58;;;;;;;;;;;16.40;99.90;;;;;;5104681;27;20422;-56
2022/09/15 01:47:39;;;;;;;;;;;16.40;99.90;;;;;;5104352;27;20307;-56
2022/09/15 01:50:20;;;;;;;;;;;16.40;99.90;;;;;;5124940;27;19911;-56
2022/09/15 01:53:02;;;;;;;;;;;16.40;99.90;;;;;;5125547;27;19912;-56
2022/09/15 01:55:44;;;;;;;;;;;16.30;99.90;;;;;;5104453;27;19946;-56
2022/09/15 01:58:24;;;;;;;;;;;16.40;99.90;;;;;;5104162;27;20116;-56
2022/09/15 02:01:06;;;;;;;;;;;16.40;99.90;;;;;;5103929;27;19926;-56
2022/09/15 02:03:47;;;;;;;;;;;16.40;99.90;;;;;;5104371;27;20431;-56
2022/09/15 02:06:35;;;;;;;;;;;16.40;99.90;;;;;;5105256;27;19954;-56
2022/09/15 02:09:17;;;;;;;;;;;16.40;99.90;;;;;;5088820;27;19927;-56
2022/09/15 02:12:06;;;;;;;;;;;16.40;99.90;;;;;;5154662;27;19926;-56
2022/09/15 02:14:54;;;;;;;;;;;16.40;99.90;;;;;;5104652;27;20568;-56
2022/09/15 02:17:37;;;;;;;;;;;16.30;99.90;;;;;;5094423;27;20431;-56
2022/09/15 02:20:22;;;;;;;;;;;16.30;99.90;;;;;;5109157;27;20282;-56
2022/09/15 02:23:07;;;;;;;;;;;16.30;99.90;;;;;;5102843;27;19915;-56
2022/09/15 02:25:50;;;;;;;;;;;16.20;99.90;;;;;;5101167;27;19930;-56
2022/09/15 02:28:32;;;;;;;;;;;16.20;99.90;;;;;;5103743;27;19912;-56
2022/09/15 02:31:15;;;;;;;;;;;16.20;99.90;;;;;;5126075;27;19929;-55
2022/09/15 02:33:57;;;;;;;;;;;16.30;99.90;;;;;;5104722;27;20316;-56
2022/09/15 02:36:37;;;;;;;;;;;16.20;99.90;;;;;;5084366;28;19912;-56
2022/09/15 02:39:19;;;;;;;;;;;16.20;99.90;;;;;;5088497;27;19966;-57
2022/09/15 02:42:01;;;;;;;;;;;16.20;99.90;;;;;;5104047;27;19954;-56
2022/09/15 02:44:41;;;;;;;;;;;16.20;99.90;;;;;;5104692;27;19926;-57
2022/09/15 02:47:20;;;;;;;;;;;16.10;99.90;;;;;;5104388;27;20123;-57
2022/09/15 02:50:00;;;;;;;;;;;16.10;99.90;;;;;;5103864;27;19927;-56
2022/09/15 02:52:40;;;;;;;;;;;16.10;99.90;;;;;;5104643;27;19953;-56
2022/09/15 02:55:19;;;;;;;;;;;16.10;99.90;;;;;;5104848;27;20278;-57
2022/09/15 02:58:00;;;;;;;;;;;16.10;99.90;;;;;;5124975;27;19926;-56
2022/09/15 03:00:40;;;;;;;;;;;16.10;99.90;;;;;;5096225;27;19931;-56
2022/09/15 03:03:21;;;;;;;;;;;16.10;99.90;;;;;;5104648;27;20055;-56
2022/09/15 03:08:55;;;;;;;;;;;16.10;99.90;;;;;;5103402;27;19986;-56
2022/09/15 03:11:36;;;;;;;;;;;16.10;99.90;;;;;;5160761;27;19925;-56
2022/09/15 03:14:31;;;;;;;;;;;16.10;99.90;;;;;;5104487;27;19919;-56
2022/09/15 03:17:11;;;;;;;;;;;16.10;99.90;;;;;;5103008;27;19930;-56
2022/09/15 03:19:51;;;;;;;;;;;16.10;99.90;;;;;;5116109;27;19926;-56
2022/09/15 03:22:31;;;;;;;;;;;16.10;99.90;;;;;;5104804;27;19926;-57
2022/09/15 03:25:11;;;;;;;;;;;16.00;99.90;;;;;;5105187;27;19949;-56
2022/09/15 03:27:50;;;;;;;;;;;16.00;99.90;;;;;;5104256;27;19957;-56
2022/09/15 03:30:30;;;;;;;;;;;16.00;99.90;;;;;;5154348;27;20323;-56
2022/09/15 03:33:10;;;;;;;;;;;16.00;99.90;;;;;;5105088;27;19912;-56
2022/09/15 03:35:50;;;;;;;;;;;16.00;99.90;;;;;;5166231;27;19928;-57
2022/09/15 03:38:31;;;;;;;;;;;16.00;99.90;;;;;;5128010;27;19912;-56
2022/09/15 03:41:11;;;;;;;;;;;16.00;99.90;;;;;;5105325;27;19926;-56
2022/09/15 03:43:52;;;;;;;;;;;16.00;99.90;;;;;;5104802;27;19946;-55
2022/09/15 03:46:32;;;;;;;;;;;16.00;99.90;;;;;;5103907;27;19942;-56
2022/09/15 03:49:12;;;;;;;;;;;16.10;99.90;;;;;;5103997;27;19926;-56
2022/09/15 03:51:52;;;;;;;;;;;16.10;99.90;;;;;;5084478;28;19913;-56
2022/09/15 03:54:32;;;;;;;;;;;16.10;99.90;;;;;;5125548;27;19912;-56
2022/09/15 03:57:11;;;;;;;;;;;16.10;99.90;;;;;;5084028;28;19912;-56
2022/09/15 03:59:51;;;;;;;;;;;16.20;99.90;;;;;;5087480;28;20261;-56
2022/09/15 04:02:31;;;;;;;;;;;16.30;99.90;;;;;;5084218;28;20274;-55
2022/09/15 04:05:12;;;;;;;;;;;16.30;99.90;;;;;;5104643;27;19927;-56
2022/09/15 04:07:52;;;;;;;;;;;16.40;99.90;;;;;;5105065;27;19949;-56
2022/09/15 04:10:32;;;;;;;;;;;16.40;99.90;;;;;;5103891;27;19946;-57
2022/09/15 04:13:12;;;;;;;;;;;16.40;99.90;;;;;;5084933;28;19912;-56
2022/09/15 04:15:59;;;;;;;;;;;16.40;99.90;;;;;;5104678;27;19926;-56
2022/09/15 04:18:40;;;;;;;;;;;16.40;99.90;;;;;;5103447;27;19916;-56
2022/09/15 04:21:21;;;;;;;;;;;16.40;99.90;;;;;;5105118;27;19953;-56
2022/09/15 04:24:03;;;;;;;;;;;16.30;99.90;;;;;;5104899;27;19950;-57
2022/09/15 04:26:44;;;;;;;;;;;16.30;99.90;;;;;;5083034;27;19930;-57
2022/09/15 04:29:24;;;;;;;;;;;16.30;99.90;;;;;;5102816;27;19916;-56
2022/09/15 04:32:04;;;;;;;;;;;16.30;99.90;;;;;;5125781;27;19911;-56
2022/09/15 04:34:43;;;;;;;;;;;16.30;99.90;;;;;;5104818;27;19912;-56
2022/09/15 04:37:23;;;;;;;;;;;16.30;99.90;;;;;;5104035;27;20286;-56
2022/09/15 04:40:03;;;;;;;;;;;16.20;99.90;;;;;;5092215;27;20505;-56
2022/09/15 04:42:43;;;;;;;;;;;16.20;99.90;;;;;;5124105;27;19916;-57
2022/09/15 04:45:23;;;;;;;;;;;16.20;99.90;;;;;;5105006;27;19916;-56
2022/09/15 04:48:03;;;;;;;;;;;16.20;99.90;;;;;;5124882;27;19916;-56
2022/09/15 04:50:42;;;;;;;;;;;16.20;99.90;;;;;;5099117;27;20296;-55
2022/09/15 04:53:22;;;;;;;;;;;16.20;99.90;;;;;;5104037;27;20384;-56
2022/09/15 04:56:03;;;;;;;;;;;16.20;99.90;;;;;;5103712;27;19930;-56
2022/09/15 04:58:44;;;;;;;;;;;16.20;99.90;;;;;;5103696;27;19953;-56
2022/09/15 05:01:27;;;;;;;;;;;16.20;99.90;;;;;;5104401;27;19912;-56
2022/09/15 05:04:06;;;;;;;;;;;16.20;99.90;;;;;;5104561;27;19962;-56
2022/09/15 05:06:46;;;;;;;;;;;16.20;99.90;;;;;;5103600;27;20426;-56
2022/09/15 05:09:28;;;;;;;;;;;16.20;99.90;;;;;;5102461;27;19930;-57
2022/09/15 05:12:07;;;;;;;;;;;16.20;99.90;;;;;;5104615;27;19953;-56
2022/09/15 05:14:47;;;;;;;;;;;16.20;99.90;;;;;;5104321;27;20328;-56
2022/09/15 05:17:29;;;;;;;;;;;16.30;99.90;;;;;;5124227;27;19919;-57
2022/09/15 05:20:10;;;;;;;;;;;16.30;99.90;;;;;;5120643;27;19926;-56
2022/09/15 05:22:50;;;;;;;;;;;16.40;99.90;;;;;;5104819;27;19930;-57
2022/09/15 05:25:30;;;;;;;;;;;16.40;99.90;;;;;;5103643;27;19930;-56
2022/09/15 05:28:09;;;;;;;;;;;16.40;99.90;;;;;;5104445;27;19949;-56
2022/09/15 05:30:50;;;;;;;;;;;16.40;99.90;;;;;;5093958;27;19974;-57
2022/09/15 05:33:31;;;;;;;;;;;16.50;99.90;;;;;;5125334;27;19919;-56
2022/09/15 05:36:13;;;;;;;;;;;16.50;99.90;;;;;;5104416;27;19912;-56
2022/09/15 05:38:55;;;;;;;;;;;16.60;99.90;;;;;;5103062;27;19930;-57
2022/09/15 05:41:35;;;;;;;;;;;16.60;99.90;;;;;;5083436;28;19912;-55
2022/09/15 05:44:15;;;;;;;;;;;16.60;99.90;;;;;;5084685;28;19913;-56
2022/09/15 05:46:55;;;;;;;;;;;16.70;99.90;;;;;;5104346;27;19916;-57
2022/09/15 05:49:35;;;;;;;;;;;16.70;99.90;;;;;;5083284;28;19917;-56
2022/09/15 05:52:14;;;;;;;;;;;16.80;99.90;;;;;;5125195;27;20402;-56
2022/09/15 05:54:54;;;;;;;;;;;16.80;99.90;;;;;;5125483;27;19920;-56
2022/09/15 05:57:34;;;;;;;;;;;16.90;99.90;;;;;;5104271;27;19926;-56
2022/09/15 06:00:14;;;;;;;;;;;16.90;99.90;;;;;;5104185;27;19912;-56
2022/09/15 06:02:55;;;;;;;;;;;17.00;99.90;;;;;;5104427;27;20319;-56
2022/09/15 06:05:35;;;;;;;;;;;17.10;99.90;;;;;;5124836;27;19916;-56
2022/09/15 06:08:15;;;;;;;;;;;17.30;99.90;;;;;;5104267;27;19961;-56
2022/09/15 06:10:55;;;;;;;;;;;17.40;99.90;;;;;;5093517;27;19927;-56
2022/09/15 06:13:35;;;;;;;;;;;17.40;99.90;;;;;;5104760;27;19945;-56
2022/09/15 06:16:15;;;;;;;;;;;17.40;99.90;;;;;;5124976;27;20416;-56
2022/09/15 06:18:58;;;;;;;;;;;17.40;99.90;;;;;;5083199;28;19917;-56
2022/09/15 06:21:39;;;;;;;;;;;17.40;99.90;;;;;;5068165;28;19913;-56
2022/09/15 06:24:19;;;;;;;;;;;17.30;99.90;;;;;;5125236;27;19916;-56
2022/09/15 06:26:58;;;;;;;;;;;17.20;99.90;;;;;;5104305;27;19912;-56
2022/09/15 06:29:38;;;;;;;;;;;17.20;99.90;;;;;;5083369;28;20382;-56
2022/09/15 06:32:18;;;;;;;;;;;17.20;99.90;;;;;;5104516;27;19912;-56
2022/09/15 06:34:58;;;;;;;;;;;17.10;99.90;;;;;;5104516;27;19927;-57
2022/09/15 06:37:38;;;;;;;;;;;17.10;99.90;;;;;;5104046;27;19912;-56
2022/09/15 06:40:18;;;;;;;;;;;17.10;99.90;;;;;;5104322;27;19957;-56
2022/09/15 06:42:57;;;;;;;;;;;17.10;99.90;;;;;;5103004;27;20363;-57
2022/09/15 06:45:37;;;;;;;;;;;17.10;99.90;;;;;;5116485;27;20089;-56
2022/09/15 06:48:17;;;;;;;;;;;17.10;99.90;;;;;;5104382;27;19913;-56
2022/09/15 06:50:57;;;;;;;;;;;17.10;99.90;;;;;;5104507;27;19926;-56
2022/09/15 06:53:37;;;;;;;;;;;17.10;99.90;;;;;;5121450;27;19912;-56
2022/09/15 06:56:19;;;;;;;;;;;17.20;99.90;;;;;;5104669;27;19916;-56
2022/09/15 06:59:01;;;;;;;;;;;17.40;99.90;;;;;;5103967;27;19973;-56
2022/09/15 07:01:41;;;;;;;;;;;17.60;99.90;;;;;;5068341;28;19913;-57
2022/09/15 07:04:21;;;;;;;;;;;17.80;99.90;;;;;;5104944;27;19926;-56
2022/09/15 07:07:01;;;;;;;;;;;17.90;99.90;;;;;;5105272;27;19957;-56
2022/09/15 07:09:40;;;;;;;;;;;18.00;99.90;;;;;;5104118;27;20275;-56
2022/09/15 07:12:20;;;;;;;;;;;18.10;99.90;;;;;;5105101;27;20366;-55
2022/09/15 07:15:00;;;;;;;;;;;18.20;99.90;;;;;;5104522;27;19912;-56
2022/09/15 07:17:40;;;;;;;;;;;18.30;99.90;;;;;;5104505;27;19926;-56
2022/09/15 07:20:20;;;;;;;;;;;18.30;99.90;;;;;;5104084;27;19950;-56
2022/09/15 07:23:00;;;;;;;;;;;18.20;99.90;;;;;;5104668;27;20339;-56
2022/09/15 07:25:43;;;;;;;;;;;18.00;99.90;;;;;;5104311;27;19930;-56
2022/09/15 07:28:24;;;;;;;;;;;17.80;99.90;;;;;;5104367;27;19926;-56
2022/09/15 07:31:05;;;;;;;;;;;17.60;99.90;;;;;;5083558;28;20065;-56
2022/09/15 07:33:46;;;;;;;;;;;17.20;99.90;;;;;;5103868;27;19938;-56
2022/09/15 07:36:25;;;;;;;;;;;16.60;99.90;;;;;;5103875;27;19973;-57
2022/09/15 07:39:05;;;;;;;;;;;16.00;99.90;;;;;;5123835;27;20360;-56
2022/09/15 07:41:45;;;;;;;;;;;15.60;99.90;;;;;;5101756;27;19950;-56
2022/09/15 07:44:25;;;;;;;;;;;15.50;99.90;;;;;;5104389;27;20332;-56
2022/09/15 07:47:05;;;;;;;;;;;15.60;99.90;;;;;;5103934;27;19926;-56
2022/09/15 07:49:44;;;;;;;;;;;15.70;99.90;;;;;;5103667;27;19926;-56
2022/09/15 07:52:24;;;;;;;;;;;15.70;99.90;;;;;;5145597;27;19911;-56
2022/09/15 07:55:04;;;;;;;;;;;15.60;99.90;;;;;;5104369;27;19953;-56
2022/09/15 07:57:44;;;;;;;;;;;15.50;99.90;;;;;;5083597;28;20344;-56
2022/09/15 08:00:24;;;;;;;;;;;15.50;99.90;;;;;;5097920;27;19926;-56
2022/09/15 08:03:04;;;;;;;;;;;15.60;99.90;;;;;;5104801;27;19926;-56
2022/09/15 08:05:43;;;;;;;;;;;15.70;99.90;;;;;;5104398;27;19926;-56
2022/09/15 08:08:23;;;;;;;;;;;15.90;99.90;;;;;;5104340;27;19912;-56
2022/09/15 08:11:06;;;;;;;;;;;16.20;99.90;;;;;;5103800;27;19973;-56
2022/09/15 08:13:46;;;;;;;;;;;16.10;99.90;;;;;;5104415;27;19953;-56
2022/09/15 08:16:26;;;;;;;;;;;16.00;99.90;;;;;;5104077;27;20323;-56
2022/09/15 08:19:06;;;;;;;;;;;16.10;99.90;;;;;;5103000;27;19930;-56
2022/09/15 08:21:46;;;;;;;;;;;16.20;99.90;;;;;;5058270;28;19939;-56
2022/09/15 08:24:26;;;;;;;;;;;16.30;99.90;;;;;;5092471;27;20139;-57
2022/09/15 08:27:05;;;;;;;;;;;16.10;99.90;;;;;;5102949;27;19953;-56
2022/09/15 08:29:45;;;;;;;;;;;16.10;99.90;;;;;;5102537;27;20319;-56
2022/09/15 08:32:25;;;;;;;;;;;16.10;99.90;;;;;;5125891;27;19926;-55
2022/09/15 08:35:06;;;;;;;;;;;16.00;99.90;;;;;;5104228;27;19926;-56
2022/09/15 08:37:46;;;;;;;;;;;16.20;99.90;;;;;;5104488;27;20275;-57
2022/09/15 08:40:28;;;;;;;;;;;16.50;99.90;;;;;;5077177;28;19913;-56
2022/09/15 08:43:13;;;;;;;;;;;16.70;99.90;;;;;;5103327;27;20339;-56
2022/09/15 08:45:56;;;;;;;;;;;17.00;99.90;;;;;;5103481;27;19926;-56
2022/09/15 08:48:40;;;;;;;;;;;17.10;99.90;;;;;;5103815;27;19912;-56
2022/09/15 08:51:21;;;;;;;;;;;17.10;99.90;;;;;;5090771;27;19927;-56
2022/09/15 08:54:03;;;;;;;;;;;16.90;99.90;;;;;;5104526;27;19941;-56
2022/09/15 08:56:43;;;;;;;;;;;17.00;99.90;;;;;;5083928;28;19912;-55
2022/09/15 08:59:26;;;;;;;;;;;16.90;99.90;;;;;;5103489;27;19982;-57
2022/09/15 09:02:23;;;;;;;;;;;16.80;99.90;;;;;;5104631;27;19953;-55
2022/09/15 09:05:20;;;;;;;;;;;16.80;99.90;;;;;;5104417;27;19953;-56
2022/09/15 09:08:06;;;;;;;;;;;16.80;99.90;;;;;;5125040;27;20399;-56
2022/09/15 09:10:51;;;;;;;;;;;17.10;99.90;;;;;;5128460;27;19949;-56
2022/09/15 09:13:36;;;;;;;;;;;17.40;99.90;;;;;;5104707;27;20474;-55
2022/09/15 09:16:35;;;;;;;;;;;17.70;99.90;;;;;;5104900;27;19912;-56
2022/09/15 09:19:23;;;;;;;;;;;18.30;99.90;;;;;;5103150;27;19912;-56
2022/09/15 09:22:06;;;;;;;;;;;19.10;99.90;;;;;;5104379;27;20374;-55
2022/09/15 09:24:47;;;;;;;;;;;19.80;99.90;;;;;;5084200;28;20191;-55
2022/09/15 09:27:28;;;;;;;;;;;20.20;99.90;;;;;;5083557;28;19916;-56
2022/09/15 09:30:13;;;;;;;;;;;20.30;99.90;;;;;;5103882;27;19927;-56
2022/09/15 09:33:00;;;;;;;;;;;20.20;99.90;;;;;;5104822;27;19946;-56
2022/09/15 09:35:42;;;;;;;;;;;20.20;99.90;;;;;;5103744;27;19977;-56
2022/09/15 09:38:25;;;;;;;;;;;20.30;99.90;;;;;;5104134;27;19930;-56
2022/09/15 09:41:09;;;;;;;;;;;20.20;99.90;;;;;;5083356;28;19913;-56
2022/09/15 09:43:51;;;;;;;;;;;20.20;99.90;;;;;;5123594;27;19926;-55
2022/09/15 09:46:31;;;;;;;;;;;20.10;99.90;;;;;;5104119;27;20381;-56
2022/09/15 09:49:15;;;;;;;;;;;19.60;99.90;;;;;;5104044;27;19930;-56
2022/09/15 09:52:01;;;;;;;;;;;19.10;99.90;;;;;;5104055;27;19926;-56
2022/09/15 09:54:41;;;;;;;;;;;18.70;99.90;;;;;;5104603;27;19912;-56
2022/09/15 09:57:27;;;;;;;;;;;18.30;99.90;;;;;;5103999;27;20324;-56
2022/09/15 10:00:29;;;;;;;;;;;17.90;99.90;;;;;;5100321;27;20328;-56
2022/09/15 10:03:15;;;;;;;;;;;17.60;99.90;;;;;;5118982;27;20464;-56
2022/09/15 10:06:03;;;;;;;;;;;17.30;99.90;;;;;;5104443;27;19953;-55
2022/09/15 10:08:54;;;;;;;;;;;17.30;99.90;;;;;;5103906;27;19961;-56
2022/09/15 10:11:41;;;;;;;;;;;17.40;99.90;;;;;;5104740;27;19974;-56
2022/09/15 10:14:25;;;;;;;;;;;17.70;99.90;;;;;;5105189;27;20172;-55
2022/09/15 10:17:07;;;;;;;;;;;18.10;99.90;;;;;;5105005;27;19954;-55
2022/09/15 10:19:49;;;;;;;;;;;18.80;99.90;;;;;;5083913;28;19912;-55
2022/09/15 10:22:30;;;;;;;;;;;19.40;99.90;;;;;;5105255;27;19926;-55
2022/09/15 10:25:30;;;;;;;;;;;19.80;99.90;;;;;;5125557;27;19957;-56
2022/09/15 10:28:13;;;;;;;;;;;19.80;99.90;;;;;;5105163;27;19942;-55
2022/09/15 10:31:00;;;;;;;;;;;19.70;99.90;;;;;;5084099;28;19912;-56
2022/09/15 10:33:42;;;;;;;;;;;19.50;99.90;;;;;;5104936;27;20275;-56
2022/09/15 10:36:23;;;;;;;;;;;19.30;99.90;;;;;;5104795;27;20331;-56
2022/09/15 10:39:06;;;;;;;;;;;18.90;99.90;;;;;;5104512;27;19912;-56
2022/09/15 10:41:51;;;;;;;;;;;18.40;99.90;;;;;;5107395;27;19916;-56
2022/09/15 10:44:34;;;;;;;;;;;18.10;99.90;;;;;;5105359;27;19945;-56
2022/09/15 10:47:20;;;;;;;;;;;17.70;99.90;;;;;;5104504;27;19958;-56
2022/09/15 10:50:06;;;;;;;;;;;17.50;99.90;;;;;;5101877;27;19954;-56
2022/09/15 10:52:53;;;;;;;;;;;17.40;99.90;;;;;;5125589;27;19912;-56
2022/09/15 10:55:46;;;;;;;;;;;17.20;99.90;;;;;;5104937;27;19920;-56
2022/09/15 10:58:36;;;;;;;;;;;17.10;99.90;;;;;;5104487;27;19927;-54
2022/09/15 11:01:30;;;;;;;;;;;17.10;99.90;;;;;;5105344;27;19946;-55
2022/09/15 11:04:25;;;;;;;;;;;17.10;99.90;;;;;;5105362;27;19926;-56
2022/09/15 11:07:08;;;;;;;;;;;17.20;99.90;;;;;;5084155;28;20231;-56
2022/09/15 11:09:50;;;;;;;;;;;17.40;99.90;;;;;;5103357;27;19957;-55
2022/09/15 11:12:36;;;;;;;;;;;17.80;99.90;;;;;;5124623;27;19949;-56
2022/09/15 11:15:32;;;;;;;;;;;18.40;99.90;;;;;;5103936;27;19920;-56
2022/09/15 11:18:21;;;;;;;;;;;19.10;99.90;;;;;;5104458;27;19912;-56
2022/09/15 11:21:08;;;;;;;;;;;19.70;99.90;;;;;;5101718;27;19930;-56
2022/09/15 11:23:51;;;;;;;;;;;20.10;99.90;;;;;;5105512;27;19926;-56
2022/09/15 11:26:34;;;;;;;;;;;20.40;99.90;;;;;;5104551;27;19926;-56
2022/09/15 11:29:18;;;;;;;;;;;21.10;99.90;;;;;;5101961;27;19932;-56
2022/09/15 11:32:00;;;;;;;;;;;22.10;99.90;;;;;;5102500;27;19926;-56
2022/09/15 11:34:43;;;;;;;;;;;22.60;99.90;;;;;;5123355;27;19911;-56
2022/09/15 11:37:24;;;;;;;;;;;22.50;99.90;;;;;;5102759;27;19927;-56
2022/09/15 11:40:07;;;;;;;;;;;21.60;99.90;;;;;;5101083;27;19954;-56
2022/09/15 11:42:51;;;;;;;;;;;20.90;99.90;;;;;;5101152;27;19942;-55
2022/09/15 11:45:35;;;;;;;;;;;20.20;99.90;;;;;;5103511;27;19954;-55
2022/09/15 11:48:16;;;;;;;;;;;19.50;99.90;;;;;;5159634;27;19915;-55
2022/09/15 11:50:58;;;;;;;;;;;19.10;99.90;;;;;;5101399;27;20455;-56
2022/09/15 11:53:41;;;;;;;;;;;18.90;99.90;;;;;;5102823;27;20315;-56
2022/09/15 11:56:25;;;;;;;;;;;18.90;99.90;;;;;;5101881;27;20351;-56
2022/09/15 11:59:12;;;;;;;;;;;18.80;99.90;;;;;;5100779;27;19934;-56
2022/09/15 12:01:58;;;;;;;;;;;18.30;99.90;;;;;;5082981;27;20329;-56
2022/09/15 12:04:40;;;;;;;;;;;17.90;99.90;;;;;;5102237;27;19912;-56
2022/09/15 12:07:34;;;;;;;;;;;17.50;99.90;;;;;;5101483;27;19912;-55
2022/09/15 12:10:16;;;;;;;;;;;17.30;99.90;;;;;;5097989;27;19958;-56
2022/09/15 12:12:58;;;;;;;;;;;17.30;99.90;;;;;;5102949;27;19930;-56
2022/09/15 12:15:38;;;;;;;;;;;17.50;99.90;;;;;;5082390;28;19913;-56
2022/09/15 12:18:19;;;;;;;;;;;17.50;99.90;;;;;;5103450;27;19916;-56
2022/09/15 12:21:01;;;;;;;;;;;17.60;99.90;;;;;;5109839;27;20330;-56
2022/09/15 12:23:41;;;;;;;;;;;17.80;99.90;;;;;;5122519;27;19930;-56
2022/09/15 12:26:23;;;;;;;;;;;18.10;99.90;;;;;;5102834;27;20328;-56
2022/09/15 12:29:04;;;;;;;;;;;18.30;99.90;;;;;;5122925;27;19918;-55
2022/09/15 12:31:45;;;;;;;;;;;18.60;99.90;;;;;;5123149;27;19911;-56
2022/09/15 12:34:37;;;;;;;;;;;18.90;99.90;;;;;;5102520;27;19949;-56
2022/09/15 12:37:18;;;;;;;;;;;19.10;99.90;;;;;;5081251;28;19913;-55
2022/09/15 12:39:57;;;;;;;;;;;19.40;99.90;;;;;;5100830;27;19946;-55
2022/09/15 12:42:37;;;;;;;;;;;19.60;99.90;;;;;;5102696;27;19969;-56
2022/09/15 12:45:22;;;;;;;;;;;19.80;99.90;;;;;;5081650;28;20382;-56
2022/09/15 12:48:05;;;;;;;;;;;19.90;99.90;;;;;;5140022;27;19919;-55
2022/09/15 12:50:54;;;;;;;;;;;20.10;99.90;;;;;;5072363;28;19921;-56
2022/09/15 12:53:36;;;;;;;;;;;20.20;99.90;;;;;;5123462;27;19912;-56
2022/09/15 12:56:23;;;;;;;;;;;20.10;99.90;;;;;;5123283;27;19912;-56
2022/09/15 12:59:05;;;;;;;;;;;19.70;99.90;;;;;;5121823;27;19926;-56
2022/09/15 13:01:48;;;;;;;;;;;19.50;99.90;;;;;;5085673;27;20064;-56
2022/09/15 13:04:49;;;;;;;;;;;19.60;99.90;;;;;;5081881;28;20164;-56
2022/09/15 13:07:44;;;;;;;;;;;19.80;99.90;;;;;;5117746;27;20289;-56
2022/09/15 13:10:29;;;;;;;;;;;19.80;99.90;;;;;;5074362;28;19916;-56
2022/09/15 13:13:11;;;;;;;;;;;19.80;99.90;;;;;;5080133;28;20447;-56
2022/09/15 13:15:53;;;;;;;;;;;19.80;99.90;;;;;;5098039;27;20430;-56
2022/09/15 13:18:34;;;;;;;;;;;19.70;99.90;;;;;;5101766;27;19927;-55
2022/09/15 13:21:17;;;;;;;;;;;19.70;99.90;;;;;;5096736;27;20235;-56
2022/09/15 13:23:58;;;;;;;;;;;19.70;99.90;;;;;;5099180;27;20435;-56
2022/09/15 13:26:38;;;;;;;;;;;19.80;99.90;;;;;;5086474;27;19990;-56
2022/09/15 13:29:17;;;;;;;;;;;19.80;99.90;;;;;;5100148;27;19957;-56
2022/09/15 13:32:02;;;;;;;;;;;19.50;99.90;;;;;;5061144;27;19917;-55
2022/09/15 13:34:56;;;;;;;;;;;19.20;99.90;;;;;;5102613;27;19928;-56
2022/09/15 13:37:47;;;;;;;;;;;18.90;99.90;;;;;;5080104;28;19916;-56
2022/09/15 13:40:38;;;;;;;;;;;18.80;99.90;;;;;;5136843;27;19928;-55
2022/09/15 13:43:31;;;;;;;;;;;18.60;99.90;;;;;;5118885;27;19920;-56
2022/09/15 13:46:18;;;;;;;;;;;18.60;99.90;;;;;;5097931;27;19920;-56
2022/09/15 13:49:09;;;;;;;;;;;18.80;99.90;;;;;;5097816;27;19935;-56
2022/09/15 13:51:53;;;;;;;;;;;18.80;99.90;;;;;;5114954;27;19919;-56
2022/09/15 13:54:34;;;;;;;;;;;18.80;99.90;;;;;;5084573;27;19931;-56
2022/09/15 13:57:14;;;;;;;;;;;19.00;99.90;;;;;;5100556;27;19955;-56
2022/09/15 13:59:54;;;;;;;;;;;19.00;99.90;;;;;;5097743;27;19965;-56
2022/09/15 14:02:33;;;;;;;;;;;18.90;99.90;;;;;;5096215;27;20340;-56
2022/09/15 14:05:14;;;;;;;;;;;18.80;99.90;;;;;;5117630;27;19924;-56
2022/09/15 14:07:56;;;;;;;;;;;18.70;99.90;;;;;;5086588;27;19934;-57
2022/09/15 14:10:40;;;;;;;;;;;18.90;99.90;;;;;;5082917;28;19917;-55
2022/09/15 14:13:22;;;;;;;;;;;19.00;99.90;;;;;;5097325;27;19954;-55
2022/09/15 14:16:04;;;;;;;;;;;19.10;99.90;;;;;;5104281;27;19926;-56
2022/09/15 14:18:45;;;;;;;;;;;19.00;99.90;;;;;;5103391;27;19916;-56
2022/09/15 14:21:26;;;;;;;;;;;18.90;99.90;;;;;;5083836;28;19926;-56
2022/09/15 14:24:17;;;;;;;;;;;18.70;99.90;;;;;;5100035;27;20411;-56
2022/09/15 14:26:59;;;;;;;;;;;18.50;99.90;;;;;;5101602;27;19928;-56
2022/09/15 14:29:41;;;;;;;;;;;18.30;99.90;;;;;;5096661;27;19916;-56
2022/09/15 14:32:21;;;;;;;;;;;18.20;99.90;;;;;;5142485;22;19925;-53
2022/09/15 14:35:05;;;;;;;;;;;18.20;99.90;;;;;;5104518;27;20322;-54
2022/09/15 14:37:48;;;;;;;;;;;18.30;99.90;;;;;;5082791;28;19920;-53
2022/09/15 14:40:29;;;;;;;;;;;18.20;99.90;;;;;;5083243;28;19912;-53
2022/09/15 14:43:23;;;;;;;;;;;18.10;99.90;;;;;;5103953;27;19926;-54
2022/09/15 14:46:15;;;;;;;;;;;18.20;99.90;;;;;;5104314;27;20319;-54
2022/09/15 14:49:07;;;;;;;;;;;18.40;99.90;;;;;;5077540;28;19912;-53
2022/09/15 14:52:01;;;;;;;;;;;18.70;99.90;;;;;;5108976;27;19916;-54
2022/09/15 14:54:41;;;;;;;;;;;18.90;99.90;;;;;;5097046;27;19930;-53
2022/09/15 14:57:23;;;;;;;;;;;18.90;99.90;;;;;;5102669;27;19923;-53
2022/09/15 15:00:07;;;;;;;;;;;18.80;99.90;;;;;;5104073;27;19927;-54
2022/09/15 15:02:52;;;;;;;;;;;18.50;99.90;;;;;;5104355;27;20106;-54
2022/09/15 15:05:34;;;;;;;;;;;18.00;99.90;;;;;;5103297;27;19930;-53
2022/09/15 15:08:17;;;;;;;;;;;17.60;99.90;;;;;;5104266;27;19954;-53
2022/09/15 15:10:57;;;;;;;;;;;17.40;99.90;;;;;;5104336;27;19942;-54
2022/09/15 15:13:38;;;;;;;;;;;17.50;99.90;;;;;;5103672;27;19958;-54
2022/09/15 15:16:21;;;;;;;;;;;17.80;99.90;;;;;;5104561;27;19926;-54
2022/09/15 15:19:01;;;;;;;;;;;18.20;99.90;;;;;;5102474;27;19934;-54
2022/09/15 15:21:42;;;;;;;;;;;18.60;99.90;;;;;;5103852;27;19930;-54
2022/09/15 15:24:23;;;;;;;;;;;18.90;99.90;;;;;;5104383;27;20365;-53
2022/09/15 15:27:16;;;;;;;;;;;19.00;99.90;;;;;;5105118;27;19912;-55
2022/09/15 15:29:57;;;;;;;;;;;19.10;99.90;;;;;;5103986;27;19945;-54
2022/09/15 15:32:36;;;;;;;;;;;19.00;99.90;;;;;;5124694;27;19916;-53
2022/09/15 15:35:17;;;;;;;;;;;18.90;99.90;;;;;;5103751;27;19912;-53
2022/09/15 15:38:03;;;;;;;;;;;18.80;99.90;;;;;;5095019;27;19957;-53
2022/09/15 15:40:44;;;;;;;;;;;18.60;99.90;;;;;;5102593;27;19930;-53
2022/09/15 15:43:26;;;;;;;;;;;18.40;99.90;;;;;;5102590;27;19965;-54
2022/09/15 15:46:07;;;;;;;;;;;18.10;99.90;;;;;;5093492;27;19926;-53
2022/09/15 15:48:47;;;;;;;;;;;17.80;99.90;;;;;;5102658;27;19949;-54